sensor_id;sensor_type;location;lat;lon;timestamp;temperature;humidity
29007;DHT22;16104;48.642;9.008;2023-04-03T01:03:20;6.50;61.50
29007;DHT22;16104;48.642;9.008;2023-04-03T01:08:16;6.50;61.50
29007;DHT22;16104;48.642;9.008;2023-04-03T01:13:30;6.50;61.50
29007;DHT22;16104;48.642;9.008;2023-04-03T02:04:14;6.20;61.50
29007;DHT22;16104;48.642;9.008;2023-04-03T02:09:10;6.10;61.20
29007;DHT22;16104;48.642;9.008;2023-04-03T02:14:05;6.10;61.30
29007;DHT22;16104;48.642;9.008;2023-04-03T03:04:49;5.80;60.90
29007;DHT22;16104;48.642;9.008;2023-04-03T03:09:45;5.90;61.00
29007;DHT22;16104;48.642;9.008;2023-04-03T03:14:40;5.80;61.00
29007;DHT22;16104;48.642;9.008;2023-04-03T03:19:38;5.90;61.00
29007;DHT22;16104;48.642;9.008;2023-04-03T03:24:33;5.80;60.80
29007;DHT22;16104;48.642;9.008;2023-04-03T03:29:29;5.90;60.80
29007;DHT22;16104;48.642;9.008;2023-04-03T03:34:24;5.90;60.80
29007;DHT22;16104;48.642;9.008;2023-04-03T03:39:20;5.90;60.80
29007;DHT22;16104;48.642;9.008;2023-04-03T03:44:16;5.90;60.90
29007;DHT22;16104;48.642;9.008;2023-04-03T03:49:11;5.90;60.90
29007;DHT22;16104;48.642;9.008;2023-04-03T03:54:07;5.90;60.80
29007;DHT22;16104;48.642;9.008;2023-04-03T03:59:03;5.90;60.80
29007;DHT22;16104;48.642;9.008;2023-04-03T04:03:58;5.90;60.80
29007;DHT22;16104;48.642;9.008;2023-04-03T04:08:54;5.90;60.60
29007;DHT22;16104;48.642;9.008;2023-04-03T04:13:49;5.90;60.50
29007;DHT22;16104;48.642;9.008;2023-04-03T04:18:45;5.90;60.40
29007;DHT22;16104;48.642;9.008;2023-04-03T04:23:40;5.90;60.40
29007;DHT22;16104;48.642;9.008;2023-04-03T04:28:36;5.90;60.40
29007;DHT22;16104;48.642;9.008;2023-04-03T04:33:31;5.90;60.40
29007;DHT22;16104;48.642;9.008;2023-04-03T04:38:27;5.90;60.30
29007;DHT22;16104;48.642;9.008;2023-04-03T04:43:23;5.90;60.20
29007;DHT22;16104;48.642;9.008;2023-04-03T04:48:18;5.90;60.10
29007;DHT22;16104;48.642;9.008;2023-04-03T04:53:13;5.80;60.00
29007;DHT22;16104;48.642;9.008;2023-04-03T04:58:09;5.80;60.10
29007;DHT22;16104;48.642;9.008;2023-04-03T05:03:04;5.80;60.10
29007;DHT22;16104;48.642;9.008;2023-04-03T05:08:00;5.80;60.10
29007;DHT22;16104;48.642;9.008;2023-04-03T05:12:57;5.80;60.10
29007;DHT22;16104;48.642;9.008;2023-04-03T05:17:52;5.80;60.10
29007;DHT22;16104;48.642;9.008;2023-04-03T05:22:48;5.90;60.20
29007;DHT22;16104;48.642;9.008;2023-04-03T05:27:43;5.90;60.00
29007;DHT22;16104;48.642;9.008;2023-04-03T05:32:39;5.90;59.70
29007;DHT22;16104;48.642;9.008;2023-04-03T05:37:35;5.90;59.40
29007;DHT22;16104;48.642;9.008;2023-04-03T05:42:31;5.90;59.30
29007;DHT22;16104;48.642;9.008;2023-04-03T05:47:26;5.90;59.00
29007;DHT22;16104;48.642;9.008;2023-04-03T05:52:28;6.00;58.90
29007;DHT22;16104;48.642;9.008;2023-04-03T05:57:24;6.00;58.70
29007;DHT22;16104;48.642;9.008;2023-04-03T06:02:21;6.00;58.60
29007;DHT22;16104;48.642;9.008;2023-04-03T06:07:19;6.10;58.40
29007;DHT22;16104;48.642;9.008;2023-04-03T06:12:17;6.10;58.30
29007;DHT22;16104;48.642;9.008;2023-04-03T06:17:14;6.20;58.10
29007;DHT22;16104;48.642;9.008;2023-04-03T06:22:10;6.20;58.00
29007;DHT22;16104;48.642;9.008;2023-04-03T06:27:06;6.30;57.90
29007;DHT22;16104;48.642;9.008;2023-04-03T06:32:02;6.30;57.90
29007;DHT22;16104;48.642;9.008;2023-04-03T06:36:58;6.30;58.00
29007;DHT22;16104;48.642;9.008;2023-04-03T06:41:53;6.30;58.10
29007;DHT22;16104;48.642;9.008;2023-04-03T06:46:49;6.30;58.10
29007;DHT22;16104;48.642;9.008;2023-04-03T06:51:44;6.40;58.20
29007;DHT22;16104;48.642;9.008;2023-04-03T06:56:40;6.40;58.30
29007;DHT22;16104;48.642;9.008;2023-04-03T07:01:35;6.50;58.50
29007;DHT22;16104;48.642;9.008;2023-04-03T07:06:31;6.50;58.40
29007;DHT22;16104;48.642;9.008;2023-04-03T07:11:28;6.50;58.40
29007;DHT22;16104;48.642;9.008;2023-04-03T07:16:24;6.60;58.10
29007;DHT22;16104;48.642;9.008;2023-04-03T07:21:19;6.60;58.20
29007;DHT22;16104;48.642;9.008;2023-04-03T07:26:15;6.70;58.20
29007;DHT22;16104;48.642;9.008;2023-04-03T07:31:12;6.80;58.10
29007;DHT22;16104;48.642;9.008;2023-04-03T07:36:09;6.90;58.10
29007;DHT22;16104;48.642;9.008;2023-04-03T07:41:05;6.90;57.90
29007;DHT22;16104;48.642;9.008;2023-04-03T07:46:01;7.00;57.90
29007;DHT22;16104;48.642;9.008;2023-04-03T07:50:59;7.10;57.90
29007;DHT22;16104;48.642;9.008;2023-04-03T07:55:57;7.20;57.50
29007;DHT22;16104;48.642;9.008;2023-04-03T08:00:52;7.30;57.60
29007;DHT22;16104;48.642;9.008;2023-04-03T08:05:49;7.40;57.70
29007;DHT22;16104;48.642;9.008;2023-04-03T08:10:51;7.50;57.30
29007;DHT22;16104;48.642;9.008;2023-04-03T08:15:47;7.50;57.20
29007;DHT22;16104;48.642;9.008;2023-04-03T08:20:43;7.60;57.30
29007;DHT22;16104;48.642;9.008;2023-04-03T08:25:39;7.70;57.30
29007;DHT22;16104;48.642;9.008;2023-04-03T08:30:35;7.80;57.20
29007;DHT22;16104;48.642;9.008;2023-04-03T08:35:31;7.80;56.90
29007;DHT22;16104;48.642;9.008;2023-04-03T08:40:27;7.90;56.90
29007;DHT22;16104;48.642;9.008;2023-04-03T08:45:41;8.00;56.70
29007;DHT22;16104;48.642;9.008;2023-04-03T08:50:44;8.10;56.50
29007;DHT22;16104;48.642;9.008;2023-04-03T08:55:45;8.20;56.50
29007;DHT22;16104;48.642;9.008;2023-04-03T09:00:47;8.30;56.40
29007;DHT22;16104;48.642;9.008;2023-04-03T09:11:16;8.50;55.60
29007;DHT22;16104;48.642;9.008;2023-04-03T09:16:20;8.60;55.30
29007;DHT22;16104;48.642;9.008;2023-04-03T09:21:25;8.60;55.30
29007;DHT22;16104;48.642;9.008;2023-04-03T09:26:46;8.60;55.30
29007;DHT22;16104;48.642;9.008;2023-04-03T09:31:44;8.70;54.90
29007;DHT22;16104;48.642;9.008;2023-04-03T09:36:45;8.70;55.10
29007;DHT22;16104;48.642;9.008;2023-04-03T09:42:25;8.80;55.10
29007;DHT22;16104;48.642;9.008;2023-04-03T09:47:28;8.90;54.70
29007;DHT22;16104;48.642;9.008;2023-04-03T09:52:25;9.00;54.10
29007;DHT22;16104;48.642;9.008;2023-04-03T09:57:21;9.00;54.40
29007;DHT22;16104;48.642;9.008;2023-04-03T10:02:23;9.00;53.80
29007;DHT22;16104;48.642;9.008;2023-04-03T10:12:24;9.00;53.40
29007;DHT22;16104;48.642;9.008;2023-04-03T10:17:58;9.00;54.60
29007;DHT22;16104;48.642;9.008;2023-04-03T10:28:37;8.90;53.80
29007;DHT22;16104;48.642;9.008;2023-04-03T10:49:36;9.30;52.60
29007;DHT22;16104;48.642;9.008;2023-04-03T10:54:39;9.20;52.90
29007;DHT22;16104;48.642;9.008;2023-04-03T10:59:50;9.30;53.20
29007;DHT22;16104;48.642;9.008;2023-04-03T11:04:53;9.30;52.50
29007;DHT22;16104;48.642;9.008;2023-04-03T11:09:55;9.30;52.70
29007;DHT22;16104;48.642;9.008;2023-04-03T11:14:53;9.40;52.40
29007;DHT22;16104;48.642;9.008;2023-04-03T11:35:37;9.60;51.30
29007;DHT22;16104;48.642;9.008;2023-04-03T11:40:38;9.60;52.00
29007;DHT22;16104;48.642;9.008;2023-04-03T11:50:52;9.70;51.50
29007;DHT22;16104;48.642;9.008;2023-04-03T12:05:39;9.70;52.40
29007;DHT22;16104;48.642;9.008;2023-04-03T12:10:35;9.70;51.30
29007;DHT22;16104;48.642;9.008;2023-04-03T12:20:52;9.60;50.70
29007;DHT22;16104;48.642;9.008;2023-04-03T12:25:50;9.50;50.10
29007;DHT22;16104;48.642;9.008;2023-04-03T12:30:46;9.60;50.60
29007;DHT22;16104;48.642;9.008;2023-04-03T12:35:58;9.70;50.40
29007;DHT22;16104;48.642;9.008;2023-04-03T12:41:11;9.80;49.80
29007;DHT22;16104;48.642;9.008;2023-04-03T12:46:18;9.90;50.40
29007;DHT22;16104;48.642;9.008;2023-04-03T12:51:21;9.90;49.50
29007;DHT22;16104;48.642;9.008;2023-04-03T13:01:16;9.80;49.80
29007;DHT22;16104;48.642;9.008;2023-04-03T13:06:27;9.70;49.90
29007;DHT22;16104;48.642;9.008;2023-04-03T13:11:30;9.70;49.60
29007;DHT22;16104;48.642;9.008;2023-04-03T13:16:27;9.70;50.10
29007;DHT22;16104;48.642;9.008;2023-04-03T13:21:28;9.80;50.50
29007;DHT22;16104;48.642;9.008;2023-04-03T13:26:28;9.90;50.20
29007;DHT22;16104;48.642;9.008;2023-04-03T13:31:36;10.00;50.10
29007;DHT22;16104;48.642;9.008;2023-04-03T13:36:34;10.00;48.40
29007;DHT22;16104;48.642;9.008;2023-04-03T13:41:39;10.00;48.90
29007;DHT22;16104;48.642;9.008;2023-04-03T13:46:36;10.00;48.40
29007;DHT22;16104;48.642;9.008;2023-04-03T13:51:31;10.00;48.40
29007;DHT22;16104;48.642;9.008;2023-04-03T13:56:34;10.00;47.70
29007;DHT22;16104;48.642;9.008;2023-04-03T14:01:37;10.10;48.70
29007;DHT22;16104;48.642;9.008;2023-04-03T14:06:33;10.30;48.80
29007;DHT22;16104;48.642;9.008;2023-04-03T14:11:30;10.20;48.40
29007;DHT22;16104;48.642;9.008;2023-04-03T14:16:30;10.20;48.30
29007;DHT22;16104;48.642;9.008;2023-04-03T14:21:26;10.30;47.60
29007;DHT22;16104;48.642;9.008;2023-04-03T14:26:24;10.10;47.80
29007;DHT22;16104;48.642;9.008;2023-04-03T14:31:22;10.20;48.00
29007;DHT22;16104;48.642;9.008;2023-04-03T14:36:23;10.10;48.30
29007;DHT22;16104;48.642;9.008;2023-04-03T14:41:23;10.10;47.80
29007;DHT22;16104;48.642;9.008;2023-04-03T14:46:27;10.10;47.90
29007;DHT22;16104;48.642;9.008;2023-04-03T14:51:24;10.10;47.30
29007;DHT22;16104;48.642;9.008;2023-04-03T14:56:23;10.20;47.80
29007;DHT22;16104;48.642;9.008;2023-04-03T15:01:23;10.20;47.80
29007;DHT22;16104;48.642;9.008;2023-04-03T15:06:19;10.40;48.10
29007;DHT22;16104;48.642;9.008;2023-04-03T15:11:15;10.40;47.90
29007;DHT22;16104;48.642;9.008;2023-04-03T15:16:17;10.40;47.00
29007;DHT22;16104;48.642;9.008;2023-04-03T15:21:13;10.40;47.00
29007;DHT22;16104;48.642;9.008;2023-04-03T15:26:09;10.30;47.20
29007;DHT22;16104;48.642;9.008;2023-04-03T15:31:05;10.30;47.20
29007;DHT22;16104;48.642;9.008;2023-04-03T15:36:01;10.40;48.00
29007;DHT22;16104;48.642;9.008;2023-04-03T15:40:57;10.70;47.90
29007;DHT22;16104;48.642;9.008;2023-04-03T15:45:59;10.90;47.30
29007;DHT22;16104;48.642;9.008;2023-04-03T15:50:55;10.90;46.50
29007;DHT22;16104;48.642;9.008;2023-04-03T15:55:50;10.80;46.30
29007;DHT22;16104;48.642;9.008;2023-04-03T16:00:46;10.80;46.30
29007;DHT22;16104;48.642;9.008;2023-04-03T16:05:42;10.70;45.80
29007;DHT22;16104;48.642;9.008;2023-04-03T16:10:38;10.60;45.60
29007;DHT22;16104;48.642;9.008;2023-04-03T16:15:34;10.50;45.50
29007;DHT22;16104;48.642;9.008;2023-04-03T16:20:30;10.30;45.90
29007;DHT22;16104;48.642;9.008;2023-04-03T16:25:26;10.20;45.80
29007;DHT22;16104;48.642;9.008;2023-04-03T16:30:22;10.20;45.60
29007;DHT22;16104;48.642;9.008;2023-04-03T16:35:18;10.10;46.30
29007;DHT22;16104;48.642;9.008;2023-04-03T16:40:14;10.00;45.70
29007;DHT22;16104;48.642;9.008;2023-04-03T16:45:09;10.00;45.80
29007;DHT22;16104;48.642;9.008;2023-04-03T16:50:05;9.90;46.00
29007;DHT22;16104;48.642;9.008;2023-04-03T16:55:02;9.90;45.90
29007;DHT22;16104;48.642;9.008;2023-04-03T16:59:58;9.80;46.00
29007;DHT22;16104;48.642;9.008;2023-04-03T17:04:53;9.70;45.70
29007;DHT22;16104;48.642;9.008;2023-04-03T17:09:49;9.70;45.70
29007;DHT22;16104;48.642;9.008;2023-04-03T17:14:45;9.60;45.20
29007;DHT22;16104;48.642;9.008;2023-04-03T17:19:42;9.50;44.90
29007;DHT22;16104;48.642;9.008;2023-04-03T17:24:38;9.40;44.80
29007;DHT22;16104;48.642;9.008;2023-04-03T17:29:34;9.30;45.00
29007;DHT22;16104;48.642;9.008;2023-04-03T17:34:29;9.20;45.10
29007;DHT22;16104;48.642;9.008;2023-04-03T17:39:25;9.10;45.30
29007;DHT22;16104;48.642;9.008;2023-04-03T17:44:21;9.00;45.20
29007;DHT22;16104;48.642;9.008;2023-04-03T17:49:16;9.00;45.30
29007;DHT22;16104;48.642;9.008;2023-04-03T17:54:13;8.90;45.30
29007;DHT22;16104;48.642;9.008;2023-04-03T17:59:08;8.80;45.30
29007;DHT22;16104;48.642;9.008;2023-04-03T18:04:04;8.80;45.30
29007;DHT22;16104;48.642;9.008;2023-04-03T18:09:04;8.70;45.90
29007;DHT22;16104;48.642;9.008;2023-04-03T18:14:02;8.60;45.70
29007;DHT22;16104;48.642;9.008;2023-04-03T18:18:59;8.60;46.00
29007;DHT22;16104;48.642;9.008;2023-04-03T18:23:55;8.50;45.90
29007;DHT22;16104;48.642;9.008;2023-04-03T18:28:57;8.50;46.10
29007;DHT22;16104;48.642;9.008;2023-04-03T18:33:54;8.40;46.00
29007;DHT22;16104;48.642;9.008;2023-04-03T18:38:53;8.40;46.20
29007;DHT22;16104;48.642;9.008;2023-04-03T18:43:49;8.30;46.20
29007;DHT22;16104;48.642;9.008;2023-04-03T18:48:45;8.30;46.20
29007;DHT22;16104;48.642;9.008;2023-04-03T18:53:41;8.20;46.30
29007;DHT22;16104;48.642;9.008;2023-04-03T18:58:37;8.20;46.60
29007;DHT22;16104;48.642;9.008;2023-04-03T19:03:34;8.10;46.50
29007;DHT22;16104;48.642;9.008;2023-04-03T19:08:31;8.00;46.70
29007;DHT22;16104;48.642;9.008;2023-04-03T19:13:27;8.00;46.60
29007;DHT22;16104;48.642;9.008;2023-04-03T19:18:23;7.90;46.70
29007;DHT22;16104;48.642;9.008;2023-04-03T19:23:18;7.80;46.80
29007;DHT22;16104;48.642;9.008;2023-04-03T19:28:14;7.80;46.70
29007;DHT22;16104;48.642;9.008;2023-04-03T19:33:09;7.70;46.80
29007;DHT22;16104;48.642;9.008;2023-04-03T19:38:05;7.70;46.90
29007;DHT22;16104;48.642;9.008;2023-04-03T19:43:00;7.60;46.70
29007;DHT22;16104;48.642;9.008;2023-04-03T19:47:55;7.60;46.80
29007;DHT22;16104;48.642;9.008;2023-04-03T19:52:55;7.40;46.80
29007;DHT22;16104;48.642;9.008;2023-04-03T19:57:51;7.40;46.80
29007;DHT22;16104;48.642;9.008;2023-04-03T20:02:46;7.30;46.70
29007;DHT22;16104;48.642;9.008;2023-04-03T20:07:42;7.20;46.80
29007;DHT22;16104;48.642;9.008;2023-04-03T20:12:37;7.20;47.00
29007;DHT22;16104;48.642;9.008;2023-04-03T20:17:34;7.20;47.20
29007;DHT22;16104;48.642;9.008;2023-04-03T20:22:30;7.10;47.20
29007;DHT22;16104;48.642;9.008;2023-04-03T20:27:26;7.10;47.30
29007;DHT22;16104;48.642;9.008;2023-04-03T20:32:23;7.00;47.30
29007;DHT22;16104;48.642;9.008;2023-04-03T20:37:19;7.00;47.30
29007;DHT22;16104;48.642;9.008;2023-04-03T20:42:15;6.90;47.30
29007;DHT22;16104;48.642;9.008;2023-04-03T20:47:12;6.90;47.40
29007;DHT22;16104;48.642;9.008;2023-04-03T20:52:08;6.90;47.30
29007;DHT22;16104;48.642;9.008;2023-04-03T20:57:04;6.80;47.30
29007;DHT22;16104;48.642;9.008;2023-04-03T21:02:00;6.70;47.30
29007;DHT22;16104;48.642;9.008;2023-04-03T21:23:04;6.40;47.60
29007;DHT22;16104;48.642;9.008;2023-04-03T21:28:00;6.40;47.70
29007;DHT22;16104;48.642;9.008;2023-04-03T21:32:57;6.30;47.80
29007;DHT22;16104;48.642;9.008;2023-04-03T21:37:52;6.20;47.80
29007;DHT22;16104;48.642;9.008;2023-04-03T21:42:53;6.10;47.90
29007;DHT22;16104;48.642;9.008;2023-04-03T21:47:48;6.00;47.90
29007;DHT22;16104;48.642;9.008;2023-04-03T21:52:45;5.90;48.00
29007;DHT22;16104;48.642;9.008;2023-04-03T21:57:40;5.80;48.10
29007;DHT22;16104;48.642;9.008;2023-04-03T22:02:39;5.80;48.30
29007;DHT22;16104;48.642;9.008;2023-04-03T22:07:35;5.70;48.30
29007;DHT22;16104;48.642;9.008;2023-04-03T22:12:30;5.60;48.60
29007;DHT22;16104;48.642;9.008;2023-04-03T22:17:29;5.50;48.70
29007;DHT22;16104;48.642;9.008;2023-04-03T22:22:25;5.40;48.70
29007;DHT22;16104;48.642;9.008;2023-04-03T22:27:21;5.40;48.80
29007;DHT22;16104;48.642;9.008;2023-04-03T22:32:16;5.30;48.80
29007;DHT22;16104;48.642;9.008;2023-04-03T22:37:12;5.20;49.00
29007;DHT22;16104;48.642;9.008;2023-04-03T22:42:07;5.10;49.20
29007;DHT22;16104;48.642;9.008;2023-04-03T22:47:03;5.10;49.30
29007;DHT22;16104;48.642;9.008;2023-04-03T22:51:58;5.00;49.40
29007;DHT22;16104;48.642;9.008;2023-04-03T22:56:54;4.90;49.50
29007;DHT22;16104;48.642;9.008;2023-04-03T23:01:49;4.90;49.70
29007;DHT22;16104;48.642;9.008;2023-04-03T23:06:45;4.80;49.70
29007;DHT22;16104;48.642;9.008;2023-04-03T23:11:41;4.70;49.80
29007;DHT22;16104;48.642;9.008;2023-04-03T23:16:37;4.70;50.00
29007;DHT22;16104;48.642;9.008;2023-04-03T23:21:33;4.60;50.10
29007;DHT22;16104;48.642;9.008;2023-04-03T23:26:28;4.50;50.20
29007;DHT22;16104;48.642;9.008;2023-04-03T23:31:24;4.50;50.40
29007;DHT22;16104;48.642;9.008;2023-04-03T23:36:20;4.40;50.40
29007;DHT22;16104;48.642;9.008;2023-04-03T23:41:15;4.30;50.60
29007;DHT22;16104;48.642;9.008;2023-04-03T23:46:11;4.30;50.70
29007;DHT22;16104;48.642;9.008;2023-04-03T23:51:07;4.30;50.90
29007;DHT22;16104;48.642;9.008;2023-04-03T23:56:02;4.20;51.00
